Time;durP1;ratioP1;P1;durP2;ratioP2;P2;SDS_P1;SDS_P2;PMS_P1;PMS_P2;Temp;Humidity;BMP_temperature;BMP_pressure;BME280_temperature;BME280_humidity;BME280_pressure;Samples;Min_cycle;Max_cycle;Signal;HPM_P1;HPM_P2
2021/09/05 00:01:53;;;;;;;12.93;11.60;;;17.90;99.90;;;;;;5031367;28;20672;-79
2021/09/05 00:04:19;;;;;;;12.60;11.30;;;17.90;99.90;;;;;;5013236;28;20174;-79
2021/09/05 00:06:47;;;;;;;13.40;11.73;;;17.90;99.90;;;;;;5030988;28;20573;-79
2021/09/05 00:09:13;;;;;;;15.50;12.60;;;17.90;99.90;;;;;;5013488;28;20579;-79
2021/09/05 00:11:39;;;;;;;12.83;11.50;;;17.90;99.90;;;;;;5031186;28;20669;-79
2021/09/05 00:14:04;;;;;;;14.60;12.00;;;17.90;99.90;;;;;;5031055;28;20540;-79
2021/09/05 00:16:30;;;;;;;14.40;12.40;;;17.80;99.90;;;;;;5031002;28;20237;-79
2021/09/05 00:18:58;;;;;;;14.40;12.50;;;17.80;99.90;;;;;;5031238;28;20584;-79
2021/09/05 00:21:24;;;;;;;11.97;10.80;;;17.80;99.90;;;;;;5031257;28;20596;-79
2021/09/05 00:23:50;;;;;;;11.83;10.00;;;17.80;99.90;;;;;;5031447;28;20579;-79
2021/09/05 00:26:16;;;;;;;12.67;11.37;;;17.80;99.90;;;;;;5032002;28;20576;-80
2021/09/05 00:28:42;;;;;;;12.97;10.90;;;17.80;99.90;;;;;;5000563;28;20276;-79
2021/09/05 00:31:07;;;;;;;13.03;11.00;;;17.80;99.90;;;;;;5019019;28;20596;-79
2021/09/05 00:33:33;;;;;;;13.17;11.70;;;17.70;99.90;;;;;;5019748;28;20552;-78
2021/09/05 00:36:01;;;;;;;12.97;11.30;;;17.70;99.90;;;;;;5019151;28;20617;-78
2021/09/05 00:38:26;;;;;;;12.23;10.93;;;17.70;99.90;;;;;;5036753;28;20572;-79
2021/09/05 00:40:52;;;;;;;13.10;11.17;;;17.70;99.90;;;;;;5017784;28;20619;-78
2021/09/05 00:43:18;;;;;;;14.27;11.47;;;17.70;99.90;;;;;;5001309;28;20573;-78
2021/09/05 00:45:44;;;;;;;13.10;11.67;;;17.70;99.90;;;;;;5035357;28;20569;-78
2021/09/05 00:48:10;;;;;;;12.60;10.93;;;17.70;99.90;;;;;;5034479;28;20174;-78
2021/09/05 00:50:36;;;;;;;13.40;12.00;;;17.60;99.90;;;;;;5035109;28;20239;-79
2021/09/05 00:53:04;;;;;;;12.23;10.93;;;17.60;99.90;;;;;;5016779;28;20264;-78
2021/09/05 00:55:34;;;;;;;13.57;12.00;;;17.60;99.90;;;;;;5016802;28;21068;-79
2021/09/05 00:58:06;;;;;;;13.33;11.93;;;17.60;99.90;;;;;;5016080;28;20561;-78
2021/09/05 01:00:35;;;;;;;12.80;11.40;;;17.60;99.90;;;;;;5033957;28;20622;-80
2021/09/05 01:03:03;;;;;;;13.40;12.00;;;17.60;99.90;;;;;;4999913;28;20603;-79
2021/09/05 01:05:31;;;;;;;13.50;12.10;;;17.60;99.90;;;;;;5016164;28;20580;-79
2021/09/05 01:07:57;;;;;;;13.30;11.57;;;17.60;99.90;;;;;;5033724;28;20658;-80
2021/09/05 01:10:25;;;;;;;12.80;11.50;;;17.60;99.90;;;;;;5033954;28;20615;-79
2021/09/05 01:12:51;;;;;;;14.10;12.40;;;17.60;99.90;;;;;;5017117;28;20599;-79
2021/09/05 01:15:17;;;;;;;14.50;11.80;;;17.60;99.90;;;;;;5033440;28;20623;-79
2021/09/05 01:17:44;;;;;;;14.00;11.53;;;17.60;99.90;;;;;;5033668;28;20178;-79
2021/09/05 01:20:29;;;;;;;14.40;11.40;;;17.50;99.90;;;;;;5015929;28;20622;-79
2021/09/05 01:23:28;;;;;;;12.60;11.03;;;17.50;99.90;;;;;;5015970;28;20634;-79
2021/09/05 01:26:14;;;;;;;13.10;11.67;;;17.50;99.90;;;;;;5018289;28;21109;-79
2021/09/05 01:29:00;;;;;;;13.40;10.70;;;17.50;99.90;;;;;;4983318;28;20585;-79
2021/09/05 01:31:53;;;;;;;12.90;10.53;;;17.50;99.90;;;;;;5019829;28;21243;-78
2021/09/05 01:34:48;;;;;;;12.57;11.07;;;17.50;99.90;;;;;;4962489;28;20592;-79
2021/09/05 01:37:43;;;;;;;13.20;11.40;;;17.50;99.90;;;;;;4998925;28;20581;-79
2021/09/05 01:40:37;;;;;;;11.50;10.40;;;17.50;99.90;;;;;;5032321;28;20608;-79
2021/09/05 01:43:41;;;;;;;12.10;10.77;;;17.50;99.90;;;;;;5033179;28;20642;-79
2021/09/05 01:46:26;;;;;;;12.13;10.30;;;17.40;99.90;;;;;;5033022;28;20576;-79
2021/09/05 01:49:10;;;;;;;12.60;11.13;;;17.40;99.90;;;;;;5033841;28;20560;-78
2021/09/05 01:51:57;;;;;;;14.53;10.67;;;17.40;99.90;;;;;;5001832;28;20957;-78
2021/09/05 01:54:41;;;;;;;12.33;11.03;;;17.40;99.90;;;;;;5033369;28;20571;-78
2021/09/05 01:57:30;;;;;;;11.63;10.43;;;17.40;99.90;;;;;;4995108;28;20945;-78
2021/09/05 02:00:22;;;;;;;12.17;10.97;;;17.40;99.90;;;;;;5002253;28;20600;-78
2021/09/05 02:02:56;;;;;;;12.57;10.80;;;17.40;99.90;;;;;;5015167;28;20588;-79
2021/09/05 02:05:45;;;;;;;12.60;11.20;;;17.40;99.90;;;;;;5024453;28;20596;-80
2021/09/05 02:08:43;;;;;;;12.20;10.90;;;17.40;99.90;;;;;;4999327;28;20964;-78
2021/09/05 02:11:12;;;;;;;14.23;11.70;;;17.40;99.90;;;;;;5032629;28;20627;-79
2021/09/05 02:13:56;;;;;;;14.07;12.63;;;17.30;99.90;;;;;;5015049;28;20628;-79
2021/09/05 02:16:31;;;;;;;15.80;13.07;;;17.30;99.90;;;;;;5032362;28;21015;-78
2021/09/05 02:19:17;;;;;;;14.37;12.27;;;17.30;99.90;;;;;;5015105;28;20970;-79
2021/09/05 02:22:08;;;;;;;14.77;13.17;;;17.30;99.90;;;;;;5028319;28;20623;-79
2021/09/05 02:25:04;;;;;;;15.33;13.77;;;17.30;99.90;;;;;;5033327;28;21015;-79
2021/09/05 02:27:48;;;;;;;15.90;13.17;;;17.20;99.90;;;;;;5014637;28;20592;-79
2021/09/05 02:30:35;;;;;;;14.03;11.20;;;17.20;99.90;;;;;;5015238;28;20970;-79
2021/09/05 02:33:19;;;;;;;13.90;12.00;;;17.20;99.90;;;;;;5032591;28;20638;-78
2021/09/05 02:35:58;;;;;;;14.47;12.97;;;17.20;99.90;;;;;;5015078;28;20612;-79
2021/09/05 02:38:58;;;;;;;13.67;12.37;;;17.10;99.90;;;;;;5031821;28;20604;-79
2021/09/05 02:41:42;;;;;;;13.60;12.03;;;17.10;99.90;;;;;;5032425;28;20679;-79
2021/09/05 02:44:33;;;;;;;14.93;12.50;;;17.10;99.90;;;;;;5014800;28;20622;-79
2021/09/05 02:47:22;;;;;;;13.40;11.77;;;17.10;99.90;;;;;;5020912;28;21186;-79
2021/09/05 02:50:05;;;;;;;13.87;12.03;;;17.10;99.90;;;;;;5014439;28;20584;-79
2021/09/05 02:52:50;;;;;;;12.93;11.37;;;17.10;99.90;;;;;;5014256;28;20663;-79
2021/09/05 02:55:51;;;;;;;14.17;11.73;;;17.00;99.90;;;;;;5014240;28;20632;-79
2021/09/05 02:58:39;;;;;;;14.23;11.50;;;17.00;99.90;;;;;;5014371;28;20568;-79
2021/09/05 03:01:28;;;;;;;15.60;11.47;;;17.00;99.90;;;;;;4994359;28;20608;-79
2021/09/05 03:04:12;;;;;;;14.53;12.97;;;17.00;99.90;;;;;;5015259;28;20580;-78
2021/09/05 03:06:56;;;;;;;15.70;13.40;;;17.00;99.90;;;;;;4997497;28;20592;-79
2021/09/05 03:09:44;;;;;;;14.70;13.20;;;17.00;99.90;;;;;;5013872;28;20591;-79
2021/09/05 03:12:38;;;;;;;14.03;12.60;;;17.00;99.90;;;;;;5018257;28;20715;-78
2021/09/05 03:15:30;;;;;;;14.13;12.67;;;17.00;99.90;;;;;;5013958;28;20612;-78
2021/09/05 03:18:14;;;;;;;14.23;12.73;;;17.00;99.90;;;;;;5013637;28;20627;-79
2021/09/05 03:20:58;;;;;;;16.10;13.53;;;17.00;99.90;;;;;;5016688;28;20599;-78
2021/09/05 03:23:53;;;;;;;16.07;14.43;;;17.00;99.90;;;;;;4997533;28;20577;-78
2021/09/05 03:26:41;;;;;;;14.23;12.13;;;17.00;99.90;;;;;;5028870;28;21007;-79
2021/09/05 03:29:42;;;;;;;16.60;13.63;;;17.00;99.90;;;;;;4954094;28;20622;-79
2021/09/05 03:32:27;;;;;;;16.00;13.87;;;17.10;99.90;;;;;;5025725;28;20615;-79
2021/09/05 03:35:21;;;;;;;13.13;11.73;;;17.10;99.90;;;;;;5031288;28;20592;-79
2021/09/05 03:38:24;;;;;;;16.00;13.53;;;17.10;99.90;;;;;;5014547;28;20678;-79
2021/09/05 03:41:08;;;;;;;17.30;14.40;;;17.10;99.90;;;;;;5019850;28;20940;-79
2021/09/05 03:44:03;;;;;;;15.63;13.97;;;17.10;99.90;;;;;;5016717;28;20591;-80
2021/09/05 03:46:59;;;;;;;14.73;13.10;;;17.10;99.90;;;;;;5015046;23;20681;-81
2021/09/05 03:49:44;;;;;;;15.17;12.70;;;17.10;99.90;;;;;;5004976;28;20916;-81
2021/09/05 03:52:10;;;;;;;15.73;12.97;;;17.10;99.90;;;;;;5010442;28;20577;-81
2021/09/05 03:54:37;;;;;;;15.30;13.70;;;17.10;99.90;;;;;;5010113;28;20576;-82
2021/09/05 03:57:04;;;;;;;16.33;14.13;;;17.10;99.90;;;;;;5012912;28;20635;-81
2021/09/05 03:59:32;;;;;;;14.00;12.63;;;17.10;99.90;;;;;;4997550;28;20581;-81
2021/09/05 04:02:00;;;;;;;15.87;14.17;;;17.10;99.90;;;;;;5013442;28;20628;-81
2021/09/05 04:04:27;;;;;;;16.20;13.10;;;17.10;99.90;;;;;;5017320;28;20604;-81
2021/09/05 04:07:02;;;;;;;15.13;12.77;;;17.00;99.90;;;;;;5034521;28;20701;-82
2021/09/05 04:12:14;;;;;;;14.07;11.97;;;17.00;99.90;;;;;;5035016;28;20923;-82
2021/09/05 04:14:39;;;;;;;13.50;12.00;;;17.00;99.90;;;;;;5035177;28;20655;-81
2021/09/05 04:17:05;;;;;;;14.50;13.10;;;17.00;99.90;;;;;;5034339;28;20724;-81
2021/09/05 04:19:31;;;;;;;17.03;14.23;;;17.00;99.90;;;;;;5034988;28;20178;-81
2021/09/05 04:21:57;;;;;;;14.30;12.73;;;16.90;99.90;;;;;;5034667;28;21153;-81
2021/09/05 04:24:22;;;;;;;13.60;12.20;;;16.90;99.90;;;;;;5017143;28;20223;-81
2021/09/05 04:26:49;;;;;;;14.73;13.17;;;16.90;99.90;;;;;;5034148;28;20253;-81
2021/09/05 04:29:15;;;;;;;13.60;12.20;;;16.90;99.90;;;;;;5034965;28;20169;-81
2021/09/05 04:31:41;;;;;;;13.20;11.83;;;16.90;99.90;;;;;;5016845;28;20643;-81
2021/09/05 04:34:06;;;;;;;14.40;12.90;;;16.90;99.90;;;;;;5034632;28;20568;-81
2021/09/05 04:36:32;;;;;;;14.83;13.30;;;16.90;99.90;;;;;;5033941;28;20635;-81
2021/09/05 04:38:58;;;;;;;14.50;12.13;;;16.90;99.90;;;;;;5016922;28;20185;-82
2021/09/05 04:41:23;;;;;;;14.83;13.23;;;16.90;99.90;;;;;;5034387;28;20251;-81
2021/09/05 04:43:49;;;;;;;13.57;12.17;;;16.90;99.90;;;;;;5034481;28;20172;-81
2021/09/05 04:46:15;;;;;;;12.50;11.20;;;16.80;99.90;;;;;;5033773;28;20201;-81
2021/09/05 04:48:40;;;;;;;11.30;10.10;;;16.80;99.90;;;;;;5016369;28;20188;-81
2021/09/05 04:51:07;;;;;;;12.43;11.13;;;16.80;99.90;;;;;;5034296;28;20249;-81
2021/09/05 04:53:32;;;;;;;11.23;10.20;;;16.80;99.90;;;;;;5034134;28;20637;-81
2021/09/05 04:55:58;;;;;;;12.20;11.07;;;16.80;99.90;;;;;;5033783;28;20646;-81
2021/09/05 04:58:25;;;;;;;12.10;10.90;;;16.80;99.90;;;;;;5033985;28;20178;-81
2021/09/05 05:00:50;;;;;;;10.20;9.20;;;16.80;99.90;;;;;;5034253;28;20173;-81
2021/09/05 05:03:17;;;;;;;9.77;8.83;;;16.80;99.90;;;;;;5033854;28;20882;-81
2021/09/05 05:05:43;;;;;;;10.93;9.83;;;16.80;99.90;;;;;;5016223;28;20196;-81
2021/09/05 05:08:09;;;;;;;13.30;10.27;;;16.80;99.90;;;;;;5033559;28;20568;-81
2021/09/05 05:10:35;;;;;;;10.30;9.40;;;16.80;99.90;;;;;;5034143;28;20174;-81
2021/09/05 05:13:00;;;;;;;10.97;9.90;;;16.80;99.90;;;;;;5033870;28;20264;-81
2021/09/05 05:15:26;;;;;;;12.17;10.77;;;16.80;99.90;;;;;;5032581;28;21282;-81
2021/09/05 05:17:52;;;;;;;9.97;8.50;;;16.80;99.90;;;;;;5015474;28;20570;-81
2021/09/05 05:20:18;;;;;;;12.90;10.60;;;16.80;99.90;;;;;;5033671;28;20165;-81
2021/09/05 05:22:43;;;;;;;11.80;10.60;;;16.90;99.90;;;;;;5033619;28;20166;-81
2021/09/05 05:25:10;;;;;;;9.40;8.50;;;16.90;99.90;;;;;;5033887;28;20166;-81
2021/09/05 05:27:36;;;;;;;10.53;9.57;;;16.90;99.90;;;;;;5033181;28;20178;-81
2021/09/05 05:30:04;;;;;;;10.30;9.27;;;16.90;99.90;;;;;;5033422;28;20583;-81
2021/09/05 05:32:29;;;;;;;10.33;9.33;;;16.90;99.90;;;;;;5033652;28;20608;-81
2021/09/05 05:34:55;;;;;;;10.50;9.40;;;17.00;99.90;;;;;;5033393;28;20676;-81
2021/09/05 05:37:21;;;;;;;14.40;9.27;;;17.00;99.90;;;;;;5033114;28;20216;-81
2021/09/05 05:39:47;;;;;;;9.67;8.77;;;17.00;99.90;;;;;;5033189;28;20162;-81
2021/09/05 05:42:12;;;;;;;11.40;10.20;;;17.00;99.90;;;;;;5033340;28;20165;-81
2021/09/05 05:44:38;;;;;;;10.90;9.80;;;17.10;99.90;;;;;;5033074;28;20613;-79
2021/09/05 05:47:04;;;;;;;10.77;9.77;;;17.10;99.90;;;;;;5014820;28;20211;-79
2021/09/05 05:49:30;;;;;;;11.67;10.47;;;17.10;99.90;;;;;;5032962;28;20220;-80
2021/09/05 05:51:56;;;;;;;12.43;10.50;;;17.20;99.90;;;;;;5015353;28;20568;-80
2021/09/05 05:54:22;;;;;;;10.57;9.47;;;17.20;99.90;;;;;;5032913;28;20904;-80
2021/09/05 05:56:47;;;;;;;10.60;9.53;;;17.30;99.90;;;;;;5014649;28;20217;-80
2021/09/05 05:59:13;;;;;;;10.30;9.30;;;17.40;99.90;;;;;;5032802;28;20170;-80
2021/09/05 06:01:41;;;;;;;11.30;9.87;;;17.50;99.90;;;;;;5032846;28;20165;-80
2021/09/05 06:04:11;;;;;;;10.03;9.13;;;17.50;99.90;;;;;;5032720;28;20165;-80
2021/09/05 06:06:39;;;;;;;12.30;11.00;;;17.50;99.90;;;;;;5014825;28;20604;-80
2021/09/05 06:09:05;;;;;;;10.03;9.03;;;17.60;99.90;;;;;;5032752;28;20608;-80
2021/09/05 06:11:30;;;;;;;10.27;9.27;;;17.70;99.90;;;;;;5032994;28;20614;-80
2021/09/05 06:13:56;;;;;;;9.70;8.53;;;17.70;99.90;;;;;;5032738;28;20572;-80
2021/09/05 06:16:22;;;;;;;10.30;9.30;;;17.80;99.90;;;;;;5032103;28;20780;-80
2021/09/05 06:18:48;;;;;;;11.70;10.50;;;17.90;99.90;;;;;;5032724;28;20161;-80
2021/09/05 06:21:14;;;;;;;11.00;9.90;;;17.90;99.90;;;;;;5032361;28;20621;-80
2021/09/05 06:23:40;;;;;;;10.43;9.30;;;18.00;99.90;;;;;;5032476;28;20577;-80
2021/09/05 06:26:06;;;;;;;10.60;8.73;;;18.00;99.90;;;;;;5013953;28;20610;-80
2021/09/05 06:28:32;;;;;;;9.83;8.83;;;18.10;99.90;;;;;;5032472;28;20667;-80
2021/09/05 06:30:58;;;;;;;10.73;9.63;;;18.20;99.90;;;;;;5032288;28;20575;-80
2021/09/05 06:33:24;;;;;;;10.30;9.03;;;18.30;99.90;;;;;;5032451;28;20573;-80
2021/09/05 06:35:50;;;;;;;12.60;10.33;;;18.40;99.90;;;;;;5014548;28;20216;-80
2021/09/05 06:38:15;;;;;;;10.43;9.20;;;18.50;99.90;;;;;;5014355;28;20188;-80
2021/09/05 06:40:41;;;;;;;8.97;8.10;;;18.60;99.90;;;;;;5032772;28;20561;-80
2021/09/05 06:43:07;;;;;;;10.07;9.07;;;18.70;99.90;;;;;;5016140;28;20641;-79
2021/09/05 06:45:33;;;;;;;10.13;9.13;;;19.00;99.90;;;;;;5034112;28;20166;-80
2021/09/05 06:47:59;;;;;;;10.17;9.17;;;19.50;99.90;;;;;;5034227;28;20577;-80
2021/09/05 06:50:25;;;;;;;9.53;8.63;;;20.10;99.90;;;;;;5017115;28;20204;-80
2021/09/05 06:52:51;;;;;;;10.07;9.07;;;21.00;99.90;;;;;;5034026;28;20917;-79
2021/09/05 06:55:17;;;;;;;9.00;8.17;;;21.80;99.90;;;;;;5014883;28;21091;-80
2021/09/05 06:57:43;;;;;;;10.20;9.20;;;22.70;99.90;;;;;;5032157;28;20224;-80
2021/09/05 07:00:09;;;;;;;10.00;9.03;;;23.60;99.90;;;;;;4998034;28;20170;-80
2021/09/05 07:02:34;;;;;;;9.43;8.37;;;24.50;99.90;;;;;;5031706;28;20168;-80
2021/09/05 07:05:00;;;;;;;9.03;8.23;;;25.30;99.90;;;;;;5031045;28;20909;-80
2021/09/05 07:07:26;;;;;;;9.50;8.70;;;26.00;99.90;;;;;;5030467;28;20224;-80
2021/09/05 07:09:52;;;;;;;8.53;7.63;;;26.50;99.90;;;;;;5013751;28;20980;-80
2021/09/05 07:12:18;;;;;;;8.33;7.53;;;26.90;99.90;;;;;;5032364;28;20219;-80
2021/09/05 07:14:44;;;;;;;9.90;8.90;;;27.40;99.90;;;;;;5032205;28;20572;-80
2021/09/05 07:17:10;;;;;;;9.20;8.30;;;27.80;99.90;;;;;;4996940;28;20693;-80
2021/09/05 07:19:36;;;;;;;8.50;7.70;;;28.00;99.90;;;;;;5031687;28;20177;-80
2021/09/05 07:22:02;;;;;;;8.60;7.80;;;28.30;99.90;;;;;;5031509;28;20181;-80
2021/09/05 07:24:27;;;;;;;9.27;8.43;;;28.60;99.90;;;;;;5014109;28;20685;-80
2021/09/05 07:26:53;;;;;;;9.40;8.60;;;28.90;99.90;;;;;;5013296;28;20612;-80
2021/09/05 07:29:19;;;;;;;9.63;8.73;;;29.40;99.90;;;;;;5031497;28;20201;-80
2021/09/05 07:31:45;;;;;;;8.50;7.77;;;29.50;99.90;;;;;;5031557;28;20173;-80
2021/09/05 07:34:11;;;;;;;8.00;7.40;;;29.60;99.90;;;;;;5031539;28;20165;-80
2021/09/05 07:36:37;;;;;;;8.33;7.37;;;29.80;99.90;;;;;;5014769;28;20641;-80
2021/09/05 07:39:04;;;;;;;9.20;7.23;;;30.20;99.90;;;;;;5017011;28;20249;-80
2021/09/05 07:41:30;;;;;;;8.27;7.60;;;30.40;99.90;;;;;;5035575;28;20555;-80
2021/09/05 07:43:56;;;;;;;7.80;7.20;;;30.70;99.90;;;;;;5035480;28;21009;-80
2021/09/05 07:46:22;;;;;;;8.27;7.57;;;30.80;99.90;;;;;;5034911;28;20651;-80
2021/09/05 07:48:48;;;;;;;8.53;7.73;;;30.80;99.40;;;;;;5035363;28;20173;-80
2021/09/05 07:51:13;;;;;;;8.37;7.57;;;30.90;98.50;;;;;;5035393;28;20577;-80
2021/09/05 07:53:39;;;;;;;9.50;8.60;;;31.00;97.40;;;;;;5001327;28;20318;-80
2021/09/05 07:56:05;;;;;;;8.20;7.40;;;31.00;96.80;;;;;;5034851;28;20232;-79
2021/09/05 07:58:30;;;;;;;8.00;7.37;;;31.00;95.70;;;;;;5035214;28;20168;-80
2021/09/05 08:00:56;;;;;;;9.30;7.43;;;31.00;94.70;;;;;;5035470;28;20231;-79
2021/09/05 08:03:22;;;;;;;7.10;6.50;;;31.00;94.80;;;;;;5017271;28;20196;-79
2021/09/05 08:05:48;;;;;;;8.27;7.47;;;31.10;94.70;;;;;;5017460;28;20269;-79
2021/09/05 08:08:16;;;;;;;7.70;6.87;;;31.30;94.90;;;;;;5034894;28;20698;-79
2021/09/05 08:10:42;;;;;;;7.30;6.70;;;31.70;95.20;;;;;;5034953;28;20262;-79
2021/09/05 08:13:08;;;;;;;6.67;6.17;;;32.30;95.30;;;;;;5017322;28;20730;-79
2021/09/05 08:15:33;;;;;;;7.60;6.90;;;32.60;94.00;;;;;;5017259;28;20298;-79
2021/09/05 08:17:59;;;;;;;8.00;7.40;;;32.90;91.80;;;;;;5016758;28;20249;-79
2021/09/05 08:20:25;;;;;;;7.80;7.20;;;32.90;90.60;;;;;;5017043;28;20180;-79
2021/09/05 08:22:50;;;;;;;8.10;7.30;;;32.90;90.50;;;;;;5017223;28;20197;-79
2021/09/05 08:25:16;;;;;;;7.37;6.73;;;33.10;88.90;;;;;;5034774;28;20178;-79
2021/09/05 08:27:42;;;;;;;7.63;6.93;;;33.30;89.20;;;;;;5016575;28;20186;-79
2021/09/05 08:30:08;;;;;;;8.70;7.80;;;33.80;90.10;;;;;;5034650;28;20208;-79
2021/09/05 08:32:34;;;;;;;7.43;6.73;;;34.20;86.30;;;;;;5034578;28;20169;-79
2021/09/05 08:35:00;;;;;;;8.90;6.80;;;34.40;85.80;;;;;;5034738;28;20572;-79
2021/09/05 08:37:26;;;;;;;8.97;8.17;;;34.90;86.00;;;;;;5016265;28;20239;-78
2021/09/05 08:39:52;;;;;;;7.53;6.93;;;35.40;82.40;;;;;;5000193;28;20978;-79
2021/09/05 08:42:18;;;;;;;7.47;6.80;;;35.60;81.60;;;;;;5034568;28;20173;-78
2021/09/05 08:44:44;;;;;;;8.73;7.93;;;35.90;79.60;;;;;;5017082;28;20193;-78
2021/09/05 08:47:10;;;;;;;6.83;6.23;;;36.00;74.30;;;;;;5034486;28;20698;-78
2021/09/05 08:49:37;;;;;;;6.97;6.33;;;36.40;76.10;;;;;;5016405;28;20181;-78
2021/09/05 08:52:05;;;;;;;8.10;7.50;;;36.80;75.90;;;;;;5000324;28;20180;-79
2021/09/05 08:54:32;;;;;;;7.30;6.60;;;37.30;73.60;;;;;;5016399;28;20966;-79
2021/09/05 08:56:59;;;;;;;7.87;6.43;;;37.70;72.80;;;;;;5016380;28;20642;-79
2021/09/05 08:59:25;;;;;;;7.17;6.47;;;38.00;70.40;;;;;;5034242;28;21005;-79
2021/09/05 09:02:01;;;;;;;7.47;6.80;;;38.40;69.90;;;;;;5016789;28;20600;-79
2021/09/05 09:04:49;;;;;;;6.03;5.53;;;38.80;67.20;;;;;;5016474;28;20173;-79
2021/09/05 09:07:16;;;;;;;7.37;6.77;;;39.10;67.70;;;;;;5033920;28;20612;-79
2021/09/05 09:09:57;;;;;;;7.23;6.63;;;39.50;66.10;;;;;;5034200;28;20568;-80
2021/09/05 09:12:36;;;;;;;6.70;6.10;;;39.80;61.70;;;;;;5016521;28;20610;-80
2021/09/05 09:15:02;;;;;;;7.63;6.93;;;39.90;62.20;;;;;;5033805;28;20572;-80
2021/09/05 09:17:37;;;;;;;6.57;5.97;;;40.00;59.90;;;;;;4999156;28;21258;-80
2021/09/05 09:20:04;;;;;;;6.20;5.70;;;40.00;58.80;;;;;;5033799;28;20922;-81
2021/09/05 09:22:29;;;;;;;6.67;6.10;;;40.20;58.70;;;;;;5034055;28;20667;-80
2021/09/05 09:24:55;;;;;;;6.97;6.37;;;40.40;58.00;;;;;;5016055;28;20659;-80
2021/09/05 09:27:24;;;;;;;7.20;6.60;;;40.50;57.40;;;;;;5033169;28;20186;-81
2021/09/05 09:29:55;;;;;;;6.57;6.07;;;40.70;56.10;;;;;;5015979;28;20177;-80
2021/09/05 09:32:26;;;;;;;6.70;6.20;;;40.90;55.40;;;;;;5007521;28;20605;-80
2021/09/05 09:34:53;;;;;;;6.80;6.20;;;41.00;55.10;;;;;;5039317;28;20608;-80
2021/09/05 09:37:23;;;;;;;7.27;6.60;;;41.10;54.50;;;;;;5001051;28;20663;-80
2021/09/05 09:39:56;;;;;;;7.03;6.43;;;41.00;52.20;;;;;;5001178;28;20732;-80
2021/09/05 09:42:35;;;;;;;6.93;6.43;;;40.90;52.70;;;;;;4988183;28;20605;-80
2021/09/05 09:45:08;;;;;;;6.40;5.90;;;41.00;52.60;;;;;;4988633;28;20677;-80
2021/09/05 09:47:53;;;;;;;6.87;6.17;;;41.20;52.20;;;;;;4995923;28;20617;-78
2021/09/05 09:50:21;;;;;;;5.73;5.30;;;41.30;52.70;;;;;;4996888;28;20581;-78
2021/09/05 09:52:48;;;;;;;6.93;6.20;;;41.50;52.40;;;;;;5016078;28;20561;-79
2021/09/05 09:55:14;;;;;;;6.50;5.90;;;41.80;51.60;;;;;;5017481;28;20584;-79
2021/09/05 09:57:41;;;;;;;6.67;6.17;;;41.90;51.00;;;;;;4984767;28;20609;-79
2021/09/05 10:00:08;;;;;;;6.13;5.63;;;41.80;49.70;;;;;;4998136;28;20590;-79
2021/09/05 10:02:42;;;;;;;6.90;6.40;;;41.50;48.80;;;;;;5015645;28;20533;-78
2021/09/05 10:05:11;;;;;;;9.30;6.43;;;41.20;48.00;;;;;;4999566;28;20596;-78
2021/09/05 10:07:37;;;;;;;6.20;5.70;;;41.10;48.70;;;;;;4999085;28;20714;-79
2021/09/05 10:10:06;;;;;;;6.80;6.30;;;41.10;48.90;;;;;;4997764;28;20592;-78
2021/09/05 10:12:33;;;;;;;6.27;5.77;;;41.10;47.80;;;;;;5014755;28;20620;-79
2021/09/05 10:15:00;;;;;;;5.80;5.30;;;40.90;48.00;;;;;;5015581;28;20566;-78
2021/09/05 10:17:27;;;;;;;6.63;5.93;;;41.00;48.50;;;;;;5016703;28;20634;-78
2021/09/05 10:19:54;;;;;;;6.67;6.17;;;41.10;47.70;;;;;;5002650;28;20612;-79
2021/09/05 10:22:27;;;;;;;5.57;5.17;;;41.10;47.80;;;;;;5001699;28;20581;-77
2021/09/05 10:24:53;;;;;;;6.33;5.83;;;40.90;46.70;;;;;;4999658;28;21177;-78
2021/09/05 10:27:31;;;;;;;7.00;6.40;;;40.90;46.90;;;;;;5016191;28;20657;-78
2021/09/05 10:30:10;;;;;;;6.47;5.80;;;40.60;45.90;;;;;;5000489;28;20576;-79
2021/09/05 10:32:48;;;;;;;6.27;5.67;;;40.30;45.60;;;;;;4998625;28;20576;-78
2021/09/05 10:35:38;;;;;;;5.70;5.10;;;40.10;46.90;;;;;;4998011;28;20585;-79
2021/09/05 10:38:08;;;;;;;6.37;5.70;;;39.80;47.00;;;;;;5013805;28;20569;-78
2021/09/05 10:40:51;;;;;;;6.30;5.80;;;39.70;47.00;;;;;;4993520;28;20573;-79
2021/09/05 10:43:17;;;;;;;7.03;6.33;;;39.60;47.30;;;;;;4992339;28;20638;-79
2021/09/05 10:45:55;;;;;;;5.40;5.00;;;39.50;47.40;;;;;;4999038;28;20684;-79
2021/09/05 10:48:33;;;;;;;6.07;5.57;;;39.50;47.30;;;;;;4982908;28;20586;-78
2021/09/05 10:51:10;;;;;;;5.40;5.00;;;39.40;48.30;;;;;;4983991;28;20616;-78
2021/09/05 10:53:50;;;;;;;6.10;5.60;;;39.50;47.40;;;;;;5016948;28;20584;-79
2021/09/05 10:56:20;;;;;;;6.27;5.77;;;39.50;47.60;;;;;;5000180;28;20700;-79
2021/09/05 10:59:06;;;;;;;5.93;5.43;;;39.50;47.50;;;;;;5015081;28;20601;-79
2021/09/05 11:01:39;;;;;;;6.70;6.10;;;39.60;47.40;;;;;;5016238;28;20569;-79
2021/09/05 11:04:11;;;;;;;5.37;4.87;;;39.60;46.30;;;;;;5000853;28;20589;-79
2021/09/05 11:06:47;;;;;;;5.23;4.80;;;39.60;47.00;;;;;;5000731;28;20633;-79
2021/09/05 11:11:55;;;;;;;5.37;4.97;;;39.50;46.10;;;;;;5001564;28;20610;-78
2021/09/05 11:14:36;;;;;;;5.47;4.77;;;39.40;46.80;;;;;;4986597;28;20569;-78
2021/09/05 11:17:17;;;;;;;5.27;4.77;;;39.40;46.60;;;;;;5002225;28;20609;-79
2021/09/05 11:19:44;;;;;;;5.53;5.13;;;39.20;45.70;;;;;;4987190;28;20569;-78
2021/09/05 11:22:13;;;;;;;5.70;5.30;;;39.00;46.20;;;;;;5003205;28;20616;-79
2021/09/05 11:24:41;;;;;;;5.20;4.63;;;38.90;45.70;;;;;;5004366;28;20661;-79
2021/09/05 11:27:14;;;;;;;5.50;5.10;;;38.80;46.40;;;;;;4987341;28;20643;-79
2021/09/05 11:29:41;;;;;;;5.40;4.97;;;38.70;46.00;;;;;;5003112;28;20586;-78
2021/09/05 11:32:09;;;;;;;5.90;5.03;;;38.70;46.20;;;;;;4986579;28;20577;-79
2021/09/05 11:34:37;;;;;;;4.90;4.50;;;38.70;46.50;;;;;;5003592;28;20676;-79
2021/09/05 11:37:06;;;;;;;5.47;4.97;;;38.80;46.50;;;;;;5002387;28;20724;-77
2021/09/05 11:39:32;;;;;;;4.87;4.47;;;38.80;46.40;;;;;;5002804;28;20576;-79
2021/09/05 11:42:02;;;;;;;5.37;4.97;;;38.80;46.10;;;;;;5019852;28;20578;-78
2021/09/05 11:44:36;;;;;;;5.03;4.60;;;38.70;45.70;;;;;;5002546;28;20556;-78
2021/09/05 11:47:16;;;;;;;5.10;4.70;;;38.60;45.80;;;;;;5016644;28;20650;-78
2021/09/05 11:49:47;;;;;;;5.53;4.57;;;38.40;45.80;;;;;;5000502;28;20550;-78
2021/09/05 11:52:30;;;;;;;5.00;4.60;;;38.30;45.60;;;;;;5000147;28;20637;-78
2021/09/05 11:55:06;;;;;;;4.80;4.30;;;38.10;45.60;;;;;;5017483;28;20645;-78
2021/09/05 11:57:35;;;;;;;5.53;5.13;;;38.10;46.00;;;;;;5016027;28;20625;-78
2021/09/05 12:00:07;;;;;;;4.60;4.30;;;37.90;45.60;;;;;;4999737;28;20592;-78
2021/09/05 12:02:42;;;;;;;6.50;5.10;;;37.70;45.60;;;;;;5033045;28;20589;-79
2021/09/05 12:05:15;;;;;;;6.10;4.80;;;37.30;45.60;;;;;;5000042;28;20557;-79
2021/09/05 12:07:44;;;;;;;4.53;4.13;;;37.10;46.10;;;;;;5000035;28;20629;-79
2021/09/05 12:10:17;;;;;;;5.33;4.80;;;36.90;46.40;;;;;;4999320;28;20561;-79
2021/09/05 12:12:56;;;;;;;4.47;3.93;;;36.80;46.40;;;;;;5018111;28;20571;-79
2021/09/05 12:15:23;;;;;;;5.50;5.00;;;36.60;46.30;;;;;;5018961;28;20560;-79
2021/09/05 12:17:52;;;;;;;5.43;4.97;;;36.60;46.70;;;;;;4985930;28;20561;-79
2021/09/05 12:20:22;;;;;;;5.00;4.60;;;36.30;46.40;;;;;;5017991;28;20561;-79
2021/09/05 12:22:56;;;;;;;4.73;3.73;;;36.20;46.30;;;;;;4978149;28;21190;-79
2021/09/05 12:25:24;;;;;;;4.83;4.43;;;36.10;46.50;;;;;;5035371;28;20588;-79
2021/09/05 12:28:07;;;;;;;4.83;4.40;;;36.00;46.30;;;;;;4992991;28;20669;-79
2021/09/05 12:31:03;;;;;;;4.53;4.13;;;35.90;46.40;;;;;;5007661;28;20654;-79
2021/09/05 12:33:35;;;;;;;4.70;4.30;;;35.70;46.10;;;;;;4987532;28;20675;-79
2021/09/05 12:36:04;;;;;;;4.20;3.90;;;35.50;46.00;;;;;;4985462;28;20691;-79
2021/09/05 12:38:33;;;;;;;4.53;4.13;;;35.30;46.10;;;;;;5038116;28;20581;-78
2021/09/05 12:41:12;;;;;;;5.13;4.33;;;35.00;46.10;;;;;;5004824;28;20571;-79
2021/09/05 12:43:49;;;;;;;4.47;4.13;;;34.60;45.80;;;;;;5022060;28;20573;-78
2021/09/05 12:46:35;;;;;;;3.60;3.30;;;34.30;46.20;;;;;;4988860;28;20662;-78
2021/09/05 12:49:17;;;;;;;4.50;4.10;;;34.00;46.50;;;;;;4989108;28;20567;-79
2021/09/05 12:51:52;;;;;;;6.03;4.37;;;33.80;46.60;;;;;;5005378;28;20597;-79
2021/09/05 12:54:20;;;;;;;4.20;3.90;;;33.50;46.80;;;;;;4988549;28;20553;-79
2021/09/05 12:56:49;;;;;;;3.73;3.43;;;33.20;47.60;;;;;;4988175;28;21066;-79
2021/09/05 12:59:16;;;;;;;4.10;3.80;;;33.10;47.30;;;;;;4989190;28;20613;-79
2021/09/05 13:01:44;;;;;;;4.10;3.80;;;33.00;47.60;;;;;;4990059;28;20574;-78
2021/09/05 13:04:18;;;;;;;3.97;3.43;;;32.80;47.70;;;;;;5006111;28;20578;-79
2021/09/05 13:06:44;;;;;;;5.47;4.13;;;32.70;47.80;;;;;;5002069;28;20640;-79
2021/09/05 13:09:10;;;;;;;4.03;3.70;;;32.50;47.00;;;;;;4986887;28;20569;-79